createdAt,value
2022-08-05T00:00:17.375Z,66.6
2022-08-05T00:01:28.680Z,66.4
2022-08-05T00:02:17.555Z,66.4
2022-08-05T00:03:17.077Z,66.5
2022-08-05T00:04:16.618Z,66.6
2022-08-05T00:06:03.519Z,66.7
2022-08-05T00:06:33.003Z,66.8
2022-08-05T00:07:59.524Z,67.1
2022-08-05T00:08:34.429Z,67.2
2022-08-05T00:09:19.838Z,67.4
2022-08-05T00:10:16.737Z,67.6
2022-08-05T00:11:30.453Z,67.7
2022-08-05T00:12:16.961Z,67.7
2022-08-05T00:13:18.851Z,67.7
2022-08-05T00:14:17.689Z,67.7
2022-08-05T00:15:54.755Z,67.7
2022-08-05T00:16:16.777Z,67.6
2022-08-05T00:17:20.380Z,67.7
2022-08-05T00:18:22.944Z,67.8
2022-08-05T00:19:22.194Z,67.8
2022-08-05T00:20:20.535Z,67.7
2022-08-05T00:21:17.030Z,67.6
2022-08-05T00:22:18.058Z,67.6
2022-08-05T00:23:16.466Z,67.7
2022-08-05T00:24:25.083Z,67.8
2022-08-05T00:25:17.245Z,67.9
2022-08-05T00:26:16.765Z,67.9
2022-08-05T00:27:17.195Z,67.8
2022-08-05T00:28:29.561Z,67.9
2022-08-05T00:29:18.373Z,67.8
2022-08-05T00:30:17.992Z,67.8
2022-08-05T00:31:41.739Z,67.8
2022-08-05T00:32:16.900Z,68.1
2022-08-05T00:34:42.649Z,67.9
2022-08-05T00:34:42.891Z,67.9
2022-08-05T00:35:20.462Z,68.1
2022-08-05T00:37:09.397Z,67.8
2022-08-05T00:37:17.327Z,67.9
2022-08-05T00:38:29.015Z,67.5
2022-08-05T00:39:16.635Z,67.3
2022-08-05T00:40:29.123Z,66.7
2022-08-05T00:41:18.245Z,66.8
2022-08-05T00:42:31.485Z,66.7
2022-08-05T00:43:16.982Z,66.4
2022-08-05T00:44:16.429Z,66.5
2022-08-05T00:45:38.212Z,66.6
2022-08-05T00:46:16.930Z,66.5
2022-08-05T00:47:17.532Z,66.2
2022-08-05T00:48:17.186Z,66.3
2022-08-05T00:49:17.268Z,66.4
2022-08-05T00:50:17.181Z,66.6
2022-08-05T00:51:51.293Z,67.3
2022-08-05T00:52:17.691Z,67.6
2022-08-05T00:53:45.522Z,67.6
2022-08-05T00:54:17.340Z,67.6
2022-08-05T00:55:19.096Z,67.8
2022-08-05T00:56:23.071Z,67.8
2022-08-05T00:57:21.484Z,67.6
2022-08-05T00:58:19.428Z,66.6
2022-08-05T00:59:16.897Z,66.8
2022-08-05T01:00:20.137Z,66.8
2022-08-05T01:01:43.046Z,66.5
2022-08-05T01:02:17.452Z,66.1
2022-08-05T01:03:23.532Z,66.1
2022-08-05T01:04:29.734Z,66.1
2022-08-05T01:05:17.585Z,66.0
2022-08-05T01:06:17.123Z,66.1
2022-08-05T01:07:31.560Z,66.3
2022-08-05T01:08:29.993Z,66.2
2022-08-05T01:09:20.452Z,66.5
2022-08-05T01:10:18.650Z,67.1
2022-08-05T01:11:33.243Z,67.5
2022-08-05T01:12:19.140Z,67.1
2022-08-05T01:13:27.332Z,67.7
2022-08-05T01:14:16.834Z,67.8
2022-08-05T01:15:35.971Z,67.8
2022-08-05T01:16:26.605Z,67.8
2022-08-05T01:17:17.103Z,68.1
2022-08-05T01:18:16.583Z,68.3
2022-08-05T01:19:17.325Z,68.3
2022-08-05T01:20:16.777Z,68.3
2022-08-05T01:21:23.188Z,68.6
2022-08-05T01:22:24.504Z,68.7
2022-08-05T01:23:23.659Z,69.0
2022-08-05T01:24:22.155Z,69.1
2022-08-05T01:25:16.609Z,69.1
2022-08-05T01:26:17.406Z,69.1
2022-08-05T01:27:19.691Z,69.1
2022-08-05T01:28:16.695Z,69.2
2022-08-05T01:29:23.380Z,69.4
2022-08-05T01:30:19.441Z,69.6
2022-08-05T01:31:17.453Z,69.7
2022-08-05T01:32:18.944Z,69.8
2022-08-05T01:33:19.871Z,69.8
2022-08-05T01:34:17.895Z,69.9
2022-08-05T01:35:50.369Z,70.0
2022-08-05T01:36:16.727Z,69.8
2022-08-05T01:37:25.412Z,69.7
2022-08-05T01:38:29.381Z,69.7
2022-08-05T01:39:45.579Z,69.7
2022-08-05T01:40:18.201Z,69.8
2022-08-05T01:41:21.682Z,69.8
2022-08-05T01:42:17.396Z,69.7
2022-08-05T01:43:24.015Z,69.7
2022-08-05T01:44:17.085Z,69.7
2022-08-05T01:45:16.754Z,69.3
2022-08-05T01:46:41.222Z,68.7
2022-08-05T01:47:19.319Z,68.7
2022-08-05T01:48:16.780Z,68.7
2022-08-05T01:49:24.857Z,68.5
2022-08-05T01:50:17.547Z,68.6
2022-08-05T01:51:16.985Z,68.7
2022-08-05T01:52:18.228Z,68.5
2022-08-05T01:53:37.430Z,68.6
2022-08-05T01:54:18.155Z,68.4
2022-08-05T01:55:16.681Z,69.0
2022-08-05T01:58:08.657Z,69.5
2022-08-05T01:58:08.849Z,69.4
2022-08-05T01:58:17.109Z,69.6
2022-08-05T01:59:16.579Z,69.6
2022-08-05T02:00:17.047Z,69.6
2022-08-05T02:01:25.394Z,69.9
2022-08-05T02:02:17.280Z,69.9
2022-08-05T02:03:31.659Z,70.0
2022-08-05T02:04:16.423Z,70.4
2022-08-05T02:05:16.868Z,70.4
2022-08-05T02:06:33.709Z,70.3
2022-08-05T02:07:23.156Z,70.0
2022-08-05T02:08:29.001Z,69.9
2022-08-05T02:09:20.862Z,70.1
2022-08-05T02:10:17.787Z,69.9
2022-08-05T02:11:24.102Z,70.0
2022-08-05T02:12:16.844Z,70.0
2022-08-05T02:13:17.641Z,69.9
2022-08-05T02:14:17.246Z,70.2
2022-08-05T02:15:20.025Z,70.2
2022-08-05T02:16:22.301Z,70.1
2022-08-05T02:17:29.970Z,70.0
2022-08-05T02:18:33.434Z,70.2
2022-08-05T02:19:16.985Z,70.4
2022-08-05T02:20:20.938Z,70.3
2022-08-05T02:21:16.670Z,70.3
2022-08-05T02:22:27.152Z,70.4
2022-08-05T02:23:16.867Z,70.4
2022-08-05T02:24:18.159Z,70.4
2022-08-05T02:25:17.692Z,70.4
2022-08-05T02:26:17.386Z,70.2
2022-08-05T02:27:16.821Z,70.3
2022-08-05T02:28:30.521Z,70.6
2022-08-05T02:29:25.960Z,70.8
2022-08-05T02:30:17.562Z,70.2
2022-08-05T02:31:21.432Z,70.3
2022-08-05T02:32:29.287Z,70.4
2022-08-05T02:33:36.297Z,70.6
2022-08-05T02:34:19.082Z,70.5
2022-08-05T02:35:33.138Z,70.6
2022-08-05T02:36:17.045Z,70.6
2022-08-05T02:37:17.380Z,70.8
2022-08-05T02:38:19.928Z,70.6
2022-08-05T02:39:21.743Z,70.8
2022-08-05T02:40:17.302Z,70.7
2022-08-05T02:41:18.070Z,70.7
2022-08-05T02:42:27.782Z,71.1
2022-08-05T02:43:17.429Z,71.3
2022-08-05T02:44:17.359Z,71.2
2022-08-05T02:45:16.858Z,71.3
2022-08-05T02:46:27.740Z,71.4
2022-08-05T02:47:16.520Z,71.4
2022-08-05T02:48:16.948Z,71.5
2022-08-05T02:49:17.791Z,71.6
2022-08-05T02:50:18.315Z,71.6
2022-08-05T02:51:16.766Z,71.6
2022-08-05T02:52:30.293Z,71.6
2022-08-05T02:53:19.652Z,71.7
2022-08-05T02:54:34.593Z,71.6
2022-08-05T02:55:17.726Z,71.6
2022-08-05T02:56:19.136Z,71.6
2022-08-05T02:58:09.590Z,71.6
2022-08-05T02:58:20.606Z,71.7
2022-08-05T02:59:18.669Z,71.6
2022-08-05T03:00:17.253Z,71.5
2022-08-05T03:01:19.683Z,71.1
2022-08-05T03:02:17.810Z,71.1
2022-08-05T03:03:17.809Z,71.0
2022-08-05T03:04:16.957Z,71.2
2022-08-05T03:06:52.772Z,71.1
2022-08-05T03:06:53.335Z,71.1
2022-08-05T03:07:40.868Z,71.3
2022-08-05T03:08:29.701Z,71.4
2022-08-05T03:09:36.116Z,71.5
2022-08-05T03:10:25.266Z,71.6
2022-08-05T03:11:54.079Z,71.8
2022-08-05T03:12:17.509Z,71.9
2022-08-05T03:13:17.278Z,71.8
2022-08-05T03:14:17.432Z,71.8
2022-08-05T03:15:17.341Z,72.0
2022-08-05T03:16:19.685Z,72.0
2022-08-05T03:17:16.682Z,71.7
2022-08-05T03:18:17.627Z,71.9
2022-08-05T03:19:33.008Z,71.9
2022-08-05T03:20:19.232Z,71.8
2022-08-05T03:21:17.290Z,71.4
2022-08-05T03:22:32.034Z,71.3
2022-08-05T03:23:17.101Z,70.9
2022-08-05T03:24:16.638Z,70.6
2022-08-05T03:25:34.183Z,70.5
2022-08-05T03:26:31.163Z,70.4
2022-08-05T03:27:17.577Z,70.4
2022-08-05T03:28:19.894Z,70.6
2022-08-05T03:29:18.289Z,70.6
2022-08-05T03:30:20.944Z,70.6
2022-08-05T03:31:56.401Z,70.6
2022-08-05T03:32:19.532Z,70.6
2022-08-05T03:33:17.069Z,70.8
2022-08-05T03:34:17.147Z,70.7
2022-08-05T03:35:18.716Z,70.7
2022-08-05T03:36:30.486Z,70.7
2022-08-05T03:37:17.993Z,70.8
2022-08-05T03:38:33.029Z,70.8
2022-08-05T03:39:27.678Z,70.3
2022-08-05T03:40:31.529Z,70.0
2022-08-05T03:41:23.800Z,70.0
2022-08-05T03:42:17.094Z,70.2
2022-08-05T03:43:59.664Z,70.1
2022-08-05T03:44:20.238Z,70.2
2022-08-05T03:45:23.462Z,70.2
2022-08-05T03:46:18.642Z,70.1
2022-08-05T03:47:17.108Z,70.0
2022-08-05T03:48:22.849Z,70.0
2022-08-05T03:49:17.291Z,70.0
2022-08-05T03:50:16.711Z,70.0
2022-08-05T03:52:36.233Z,70.1
2022-08-05T03:52:36.305Z,70.1
2022-08-05T03:54:59.598Z,70.2
2022-08-05T03:55:00.780Z,70.2
2022-08-05T03:55:54.398Z,70.1
2022-08-05T03:56:31.829Z,70.2
2022-08-05T03:57:29.159Z,70.4
2022-08-05T03:58:16.972Z,70.1
2022-08-05T03:59:20.681Z,70.3
2022-08-05T04:00:17.143Z,70.2
2022-08-05T04:01:21.163Z,70.3
2022-08-05T04:02:38.052Z,70.3
2022-08-05T04:03:29.226Z,70.4
2022-08-05T04:04:21.541Z,70.3
2022-08-05T04:05:16.996Z,70.4
2022-08-05T04:06:16.409Z,70.5
2022-08-05T04:07:25.206Z,70.5
2022-08-05T04:08:29.729Z,70.8
2022-08-05T04:09:25.910Z,70.8
2022-08-05T04:10:17.789Z,71.1
2022-08-05T04:11:20.022Z,71.3
2022-08-05T04:12:24.986Z,71.2
2022-08-05T04:13:16.521Z,71.4
2022-08-05T04:14:18.425Z,71.5
2022-08-05T04:15:16.965Z,71.6
2022-08-05T04:16:32.630Z,71.8
2022-08-05T04:17:19.317Z,71.9
2022-08-05T04:18:25.452Z,71.6
2022-08-05T04:19:17.660Z,71.6
2022-08-05T04:20:17.088Z,71.6
2022-08-05T04:22:05.495Z,71.9
2022-08-05T04:22:21.211Z,71.7
2022-08-05T04:23:16.709Z,71.8
2022-08-05T04:24:22.796Z,71.6
2022-08-05T04:25:17.499Z,71.6
2022-08-05T04:26:17.652Z,71.5
2022-08-05T04:27:19.287Z,71.7
2022-08-05T04:28:17.502Z,71.8
2022-08-05T04:29:16.935Z,71.9
2022-08-05T04:30:17.414Z,72.0
2022-08-05T04:31:16.484Z,72.1
2022-08-05T04:32:30.878Z,72.1
2022-08-05T04:33:36.347Z,72.3
2022-08-05T04:34:32.153Z,72.7
2022-08-05T04:35:20.048Z,72.7
2022-08-05T04:36:44.632Z,72.8
2022-08-05T04:37:17.088Z,72.8
2022-08-05T04:38:17.681Z,72.6
2022-08-05T04:39:18.371Z,72.4
2022-08-05T04:40:19.812Z,72.3
2022-08-05T04:41:17.346Z,72.1
2022-08-05T04:42:16.837Z,72.0
2022-08-05T04:43:17.268Z,71.9
2022-08-05T04:44:29.774Z,71.8
2022-08-05T04:45:31.254Z,71.8
2022-08-05T04:46:28.697Z,71.7
2022-08-05T04:47:20.680Z,71.6
2022-08-05T04:48:28.511Z,71.5
2022-08-05T04:49:39.379Z,71.4
2022-08-05T04:50:34.276Z,71.4
2022-08-05T04:51:17.216Z,71.1
2022-08-05T04:52:18.808Z,71.6
2022-08-05T04:53:17.311Z,71.9
2022-08-05T04:54:17.835Z,72.0
2022-08-05T04:56:00.146Z,72.3
2022-08-05T04:56:34.194Z,72.3
2022-08-05T04:57:16.520Z,71.8
2022-08-05T04:58:21.813Z,71.9
2022-08-05T04:59:38.635Z,71.5
2022-08-05T05:00:16.964Z,71.4
2022-08-05T05:01:33.974Z,71.3
2022-08-05T05:02:36.063Z,71.1
2022-08-05T05:03:20.588Z,71.3
2022-08-05T05:04:17.266Z,71.2
2022-08-05T05:05:29.318Z,71.2
2022-08-05T05:06:36.311Z,70.8
2022-08-05T05:07:17.488Z,70.8
2022-08-05T05:08:30.005Z,70.4
2022-08-05T05:09:18.418Z,71.1
2022-08-05T05:10:16.948Z,71.2
2022-08-05T05:11:17.402Z,70.8
2022-08-05T05:12:16.931Z,70.6
2022-08-05T05:13:17.580Z,70.8
2022-08-05T05:14:31.810Z,70.5
2022-08-05T05:15:56.318Z,69.8
2022-08-05T05:16:19.885Z,69.2
2022-08-05T05:17:24.434Z,68.7
2022-08-05T05:18:31.301Z,68.5
2022-08-05T05:19:26.693Z,68.2
2022-08-05T05:20:20.540Z,67.8
2022-08-05T05:21:17.100Z,67.7
2022-08-05T05:22:26.679Z,67.4
2022-08-05T05:23:20.285Z,67.3
2022-08-05T05:24:18.508Z,67.3
2022-08-05T05:25:17.717Z,67.2
2022-08-05T05:26:17.192Z,67.0
2022-08-05T05:27:17.452Z,67.0
2022-08-05T05:28:16.864Z,66.7
2022-08-05T05:29:19.321Z,66.6
2022-08-05T05:30:31.629Z,66.2
2022-08-05T05:31:18.621Z,66.0
2022-08-05T05:32:18.672Z,66.3
2022-08-05T05:33:17.854Z,65.7
2022-08-05T05:34:24.259Z,65.3
2022-08-05T05:35:20.242Z,65.2
2022-08-05T05:36:17.342Z,65.0
2022-08-05T05:37:17.296Z,64.4
2022-08-05T05:38:27.937Z,64.4
2022-08-05T05:39:19.521Z,64.4
2022-08-05T05:40:19.918Z,64.4
2022-08-05T05:41:18.631Z,64.4
2022-08-05T05:42:20.961Z,64.1
2022-08-05T05:43:56.583Z,64.1
2022-08-05T05:44:36.119Z,64.1
2022-08-05T05:45:17.565Z,64.1
2022-08-05T05:46:19.113Z,64.8
2022-08-05T05:47:30.386Z,64.6
2022-08-05T05:48:16.666Z,64.5
2022-08-05T05:49:23.329Z,64.6
2022-08-05T05:50:20.003Z,64.5
2022-08-05T05:51:16.471Z,64.2
2022-08-05T05:52:33.031Z,64.2
2022-08-05T05:53:22.938Z,64.2
2022-08-05T05:54:17.226Z,64.1
2022-08-05T05:55:16.695Z,63.9
2022-08-05T05:56:31.475Z,63.7
2022-08-05T05:57:19.694Z,63.7
2022-08-05T05:58:17.151Z,63.7
2022-08-05T05:59:16.589Z,63.7
2022-08-05T06:00:17.018Z,63.7
2022-08-05T06:01:16.473Z,63.3
2022-08-05T06:02:32.488Z,62.9
2022-08-05T06:03:40.345Z,62.5
2022-08-05T06:04:16.728Z,62.0
2022-08-05T06:05:17.587Z,61.4
2022-08-05T06:06:17.179Z,61.0
2022-08-05T06:07:22.739Z,61.1
2022-08-05T06:08:31.713Z,61.5
2022-08-05T06:09:52.854Z,61.7
2022-08-05T06:10:18.468Z,62.0
2022-08-05T06:11:16.900Z,61.8
2022-08-05T06:12:19.692Z,62.3
2022-08-05T06:13:17.112Z,62.8
2022-08-05T06:14:17.285Z,62.9
2022-08-05T06:15:24.530Z,63.1
2022-08-05T06:16:32.926Z,63.4
2022-08-05T06:17:24.710Z,63.9
2022-08-05T06:18:17.630Z,64.1
2022-08-05T06:19:33.026Z,64.2
2022-08-05T06:20:21.896Z,64.7
2022-08-05T06:21:19.008Z,64.3
2022-08-05T06:22:18.336Z,64.0
2022-08-05T06:23:16.774Z,64.0
2022-08-05T06:24:27.200Z,64.1
2022-08-05T06:26:00.278Z,64.1
2022-08-05T06:26:23.850Z,64.3
2022-08-05T06:28:09.669Z,64.6
2022-08-05T06:28:21.845Z,64.6
2022-08-05T06:29:49.163Z,64.8
2022-08-05T06:30:21.514Z,64.8
2022-08-05T06:31:22.534Z,65.0
2022-08-05T06:32:29.298Z,65.1
2022-08-05T06:33:19.695Z,64.8
2022-08-05T06:34:20.339Z,64.7
2022-08-05T06:36:04.385Z,64.9
2022-08-05T06:36:16.446Z,65.2
2022-08-05T06:37:52.371Z,65.3
2022-08-05T06:38:16.410Z,65.5
2022-08-05T06:39:17.519Z,65.4
2022-08-05T06:40:21.545Z,65.6
2022-08-05T06:41:17.318Z,65.7
2022-08-05T06:42:18.312Z,65.6
2022-08-05T06:43:51.847Z,65.6
2022-08-05T06:44:17.909Z,65.7
2022-08-05T06:45:44.139Z,65.7
2022-08-05T06:46:16.874Z,65.8
2022-08-05T06:47:30.219Z,65.7
2022-08-05T06:48:47.540Z,65.5
2022-08-05T06:49:21.326Z,65.8
2022-08-05T06:50:17.476Z,65.3
2022-08-05T06:51:30.668Z,65.5
2022-08-05T06:52:36.508Z,65.2
2022-08-05T06:53:28.165Z,64.1
2022-08-05T06:54:19.373Z,64.1
2022-08-05T06:55:18.639Z,64.2
2022-08-05T06:56:27.086Z,64.0
2022-08-05T06:57:58.339Z,64.1
2022-08-05T06:58:35.190Z,64.0
2022-08-05T06:59:17.070Z,63.6
2022-08-05T07:00:25.642Z,63.0
2022-08-05T07:01:21.381Z,61.7
2022-08-05T07:02:23.011Z,60.7
2022-08-05T07:03:16.764Z,60.2
2022-08-05T07:04:19.448Z,59.5
2022-08-05T07:05:21.378Z,59.5
2022-08-05T07:06:20.896Z,59.0
2022-08-05T07:07:35.362Z,58.5
2022-08-05T07:08:16.778Z,57.4
2022-08-05T07:09:19.767Z,57.4
2022-08-05T07:10:17.400Z,56.8
2022-08-05T07:11:25.139Z,55.6
2022-08-05T07:12:16.534Z,56.2
2022-08-05T07:13:39.554Z,55.8
2022-08-05T07:14:29.182Z,55.4
2022-08-05T07:15:34.286Z,55.0
2022-08-05T07:16:39.478Z,54.3
2022-08-05T07:18:07.245Z,54.2
2022-08-05T07:18:30.266Z,55.8
2022-08-05T07:20:05.006Z,55.8
2022-08-05T07:20:33.714Z,55.9
2022-08-05T07:21:26.158Z,55.3
2022-08-05T07:22:17.008Z,55.3
2022-08-05T07:23:29.627Z,54.4
2022-08-05T07:24:16.636Z,53.9
2022-08-05T07:25:55.870Z,53.9
2022-08-05T07:26:22.919Z,54.1
2022-08-05T07:27:17.083Z,54.2
2022-08-05T07:28:17.610Z,53.7
2022-08-05T07:29:17.095Z,53.5
2022-08-05T07:30:30.589Z,53.1
2022-08-05T07:31:16.608Z,53.0
2022-08-05T07:32:16.486Z,52.4
2022-08-05T07:33:17.496Z,52.5
2022-08-05T07:34:28.655Z,52.2
2022-08-05T07:35:56.907Z,51.8
2022-08-05T07:36:21.655Z,51.6
2022-08-05T07:37:17.301Z,51.3
2022-08-05T07:38:32.693Z,51.5
2022-08-05T07:40:04.966Z,52.3
2022-08-05T07:40:32.727Z,52.6
2022-08-05T07:42:09.741Z,53.0
2022-08-05T07:42:31.590Z,52.9
2022-08-05T07:43:21.322Z,52.3
2022-08-05T07:44:19.712Z,51.6
2022-08-05T07:45:31.258Z,51.0
2022-08-05T07:46:25.962Z,50.4
2022-08-05T07:47:16.543Z,51.7
2022-08-05T07:49:01.086Z,52.8
2022-08-05T07:49:18.541Z,52.4
2022-08-05T07:50:17.108Z,51.2
2022-08-05T07:51:36.145Z,50.5
2022-08-05T07:52:18.185Z,50.4
2022-08-05T07:53:17.129Z,49.7
2022-08-05T07:54:19.048Z,48.3
2022-08-05T07:55:44.693Z,48.7
2022-08-05T07:56:39.534Z,49.6
2022-08-05T07:57:42.193Z,49.6
2022-08-05T07:58:55.124Z,48.7
2022-08-05T07:59:23.181Z,48.3
2022-08-05T08:00:17.453Z,49.2
2022-08-05T08:01:22.193Z,49.4
2022-08-05T08:02:18.351Z,49.6
2022-08-05T08:03:21.695Z,50.4
2022-08-05T08:04:34.412Z,51.9
2022-08-05T08:05:17.617Z,51.7
2022-08-05T08:06:17.116Z,50.1
2022-08-05T08:07:18.478Z,49.5
2022-08-05T08:08:20.187Z,48.2
2022-08-05T08:09:19.887Z,50.1
2022-08-05T08:10:20.889Z,50.2
2022-08-05T08:11:16.461Z,49.7
2022-08-05T08:12:39.647Z,49.8
2022-08-05T08:13:29.449Z,49.9
2022-08-05T08:14:19.253Z,48.6
2022-08-05T08:15:16.838Z,48.4
2022-08-05T08:16:34.284Z,47.3
2022-08-05T08:17:16.902Z,47.5
2022-08-05T08:18:21.286Z,48.7
2022-08-05T08:19:38.058Z,49.3
2022-08-05T08:20:44.861Z,49.8
2022-08-05T08:21:18.006Z,50.0
2022-08-05T08:22:16.785Z,51.8
2022-08-05T08:24:00.809Z,51.5
2022-08-05T08:24:20.240Z,50.7
2022-08-05T08:25:36.035Z,49.0
2022-08-05T08:26:29.841Z,48.7
2022-08-05T08:27:16.855Z,48.4
2022-08-05T08:28:36.015Z,48.1
2022-08-05T08:30:05.007Z,47.2
2022-08-05T08:30:36.516Z,46.7
2022-08-05T08:31:17.759Z,46.7
2022-08-05T08:32:21.674Z,46.8
2022-08-05T08:33:16.803Z,46.4
2022-08-05T08:34:19.016Z,46.1
2022-08-05T08:35:19.343Z,45.9
2022-08-05T08:36:37.353Z,45.5
2022-08-05T08:37:19.040Z,46.2
2022-08-05T08:38:32.391Z,46.4
2022-08-05T08:39:16.764Z,45.9
2022-08-05T08:40:18.229Z,45.5
2022-08-05T08:41:18.048Z,45.9
2022-08-05T08:42:32.662Z,45.8
2022-08-05T08:45:17.584Z,46.7
2022-08-05T08:45:21.828Z,46.5
2022-08-05T08:45:29.400Z,46.8
2022-08-05T08:46:16.926Z,46.3
2022-08-05T08:47:47.920Z,46.3
2022-08-05T08:48:43.739Z,46.1
2022-08-05T08:50:08.115Z,46.0
2022-08-05T08:50:32.184Z,44.6
2022-08-05T08:52:04.504Z,43.3
2022-08-05T08:52:16.654Z,43.2
2022-08-05T08:53:17.111Z,43.6
2022-08-05T08:54:16.531Z,43.6
2022-08-05T08:55:32.312Z,45.4
2022-08-05T08:56:18.250Z,46.0
2022-08-05T08:57:17.772Z,45.7
2022-08-05T08:58:17.210Z,44.9
2022-08-05T08:59:20.867Z,45.2
2022-08-05T09:00:19.632Z,46.3
2022-08-05T09:01:18.723Z,46.6
2022-08-05T09:02:16.941Z,46.3
2022-08-05T09:03:21.052Z,46.6
2022-08-05T09:04:16.515Z,46.4
2022-08-05T09:05:18.576Z,46.6
2022-08-05T09:06:27.941Z,46.7
2022-08-05T09:07:39.662Z,46.8
2022-08-05T09:08:16.478Z,46.8
2022-08-05T09:09:16.942Z,47.0
2022-08-05T09:10:18.913Z,47.4
2022-08-05T09:11:52.355Z,47.3
2022-08-05T09:12:28.918Z,48.6
2022-08-05T09:13:17.123Z,49.3
2022-08-05T09:14:55.451Z,49.2
2022-08-05T09:15:17.102Z,48.1
2022-08-05T09:16:17.281Z,46.5
2022-08-05T09:17:41.496Z,47.1
2022-08-05T09:18:17.273Z,47.4
2022-08-05T09:19:16.729Z,47.1
2022-08-05T09:20:36.823Z,46.3
2022-08-05T09:22:18.022Z,46.6
2022-08-05T09:22:31.417Z,47.2
2022-08-05T09:23:21.620Z,47.4
2022-08-05T09:24:17.356Z,48.1
2022-08-05T09:26:00.603Z,48.0
2022-08-05T09:26:22.411Z,46.7
2022-08-05T09:28:03.605Z,45.6
2022-08-05T09:28:21.380Z,44.9
2022-08-05T09:29:19.277Z,44.9
2022-08-05T09:30:23.694Z,45.2
2022-08-05T09:32:38.923Z,45.5
2022-08-05T09:32:42.514Z,46.1
2022-08-05T09:33:17.423Z,44.4
2022-08-05T09:34:16.866Z,43.9
2022-08-05T09:35:27.632Z,43.6
2022-08-05T09:36:16.929Z,43.3
2022-08-05T09:38:11.864Z,42.3
2022-08-05T09:38:29.402Z,42.3
2022-08-05T09:39:22.408Z,39.9
2022-08-05T09:40:17.180Z,39.8
2022-08-05T09:41:17.100Z,39.0
2022-08-05T09:42:28.086Z,38.8
2022-08-05T09:43:20.224Z,38.9
2022-08-05T09:44:16.790Z,38.0
2022-08-05T09:46:05.410Z,38.3
2022-08-05T09:46:28.289Z,38.8
2022-08-05T09:47:20.831Z,38.6
2022-08-05T09:48:21.154Z,40.0
2022-08-05T09:49:20.021Z,38.6
2022-08-05T09:50:32.461Z,38.0
2022-08-05T09:51:16.466Z,38.2
2022-08-05T09:52:16.679Z,37.6
2022-08-05T09:53:30.857Z,37.2
2022-08-05T09:54:29.195Z,37.5
2022-08-05T09:55:55.700Z,37.4
2022-08-05T09:56:19.171Z,36.6
2022-08-05T09:57:23.760Z,37.0
2022-08-05T09:58:17.233Z,36.4
2022-08-05T09:59:17.583Z,36.7
2022-08-05T10:00:17.071Z,36.6
2022-08-05T10:01:32.211Z,36.8
2022-08-05T10:02:20.669Z,37.0
2022-08-05T10:03:20.422Z,36.8
2022-08-05T10:04:18.639Z,37.1
2022-08-05T10:05:17.089Z,37.1
2022-08-05T10:06:16.509Z,37.0
2022-08-05T10:08:11.565Z,37.1
2022-08-05T10:08:37.110Z,37.8
2022-08-05T10:09:29.386Z,36.9
2022-08-05T10:10:32.359Z,37.8
2022-08-05T10:11:17.384Z,37.7
2022-08-05T10:12:30.854Z,37.6
2022-08-05T10:13:17.778Z,38.1
2022-08-05T10:14:17.350Z,38.1
2022-08-05T10:15:20.901Z,37.2
2022-08-05T10:16:17.111Z,37.5
2022-08-05T10:17:37.039Z,37.1
2022-08-05T10:18:17.600Z,38.0
2022-08-05T10:19:32.006Z,37.4
2022-08-05T10:20:20.135Z,37.2
2022-08-05T10:21:16.747Z,36.6
2022-08-05T10:22:30.155Z,36.4
2022-08-05T10:23:34.906Z,36.5
2022-08-05T10:24:16.901Z,36.8
2022-08-05T10:25:17.332Z,35.9
2022-08-05T10:26:16.774Z,36.4
2022-08-05T10:27:38.799Z,36.5
2022-08-05T10:28:29.038Z,36.5
2022-08-05T10:30:07.272Z,37.3
2022-08-05T10:31:21.255Z,36.8
2022-08-05T10:32:50.091Z,35.1
2022-08-05T10:32:50.437Z,35.9
2022-08-05T10:33:17.002Z,36.3
2022-08-05T10:34:17.221Z,35.5
2022-08-05T10:35:16.779Z,35.2
2022-08-05T10:36:25.827Z,34.4
2022-08-05T10:37:17.737Z,35.3
2022-08-05T10:38:20.705Z,36.3
2022-08-05T10:39:58.809Z,35.4
2022-08-05T10:40:18.767Z,35.0
2022-08-05T10:41:23.845Z,34.8
2022-08-05T10:42:18.847Z,34.9
2022-08-05T10:43:23.409Z,34.3
2022-08-05T10:44:16.735Z,34.4
2022-08-05T10:45:30.584Z,35.6
2022-08-05T10:46:17.316Z,34.9
2022-08-05T10:47:31.058Z,34.7
2022-08-05T10:48:29.321Z,35.2
2022-08-05T10:49:17.251Z,35.1
2022-08-05T10:50:33.344Z,34.9
2022-08-05T10:51:23.155Z,34.3
2022-08-05T10:52:17.144Z,35.0
2022-08-05T10:53:17.725Z,35.2
2022-08-05T10:54:30.001Z,35.6
2022-08-05T10:55:18.719Z,35.4
2022-08-05T10:56:26.365Z,35.0
2022-08-05T10:57:17.979Z,34.9
2022-08-05T10:58:18.099Z,35.5
2022-08-05T11:00:01.407Z,35.6
2022-08-05T11:00:20.619Z,36.2
2022-08-05T11:01:54.449Z,36.5
2022-08-05T11:02:35.305Z,37.3
2022-08-05T11:03:27.032Z,36.4
2022-08-05T11:04:16.568Z,36.2
2022-08-05T11:05:18.413Z,36.7
2022-08-05T11:06:18.099Z,36.7
2022-08-05T11:07:16.544Z,37.1
2022-08-05T11:08:36.928Z,36.6
2022-08-05T11:09:18.714Z,36.3
2022-08-05T11:10:20.465Z,36.4
2022-08-05T11:11:17.263Z,37.2
2022-08-05T11:12:16.951Z,37.2
2022-08-05T11:13:17.407Z,37.2
2022-08-05T11:14:16.869Z,36.4
2022-08-05T11:15:21.244Z,35.1
2022-08-05T11:16:21.657Z,35.8
2022-08-05T11:17:56.900Z,35.9
2022-08-05T11:18:16.857Z,35.9
2022-08-05T11:20:09.728Z,36.2
2022-08-05T11:20:18.876Z,36.5
2022-08-05T11:21:17.242Z,36.4
2022-08-05T11:22:17.610Z,36.2
2022-08-05T11:23:18.950Z,35.6
2022-08-05T11:24:29.640Z,34.7
2022-08-05T11:26:03.833Z,34.9
2022-08-05T11:26:32.744Z,35.7
2022-08-05T11:27:17.203Z,36.6
2022-08-05T11:28:17.468Z,38.4
2022-08-05T11:29:16.951Z,36.8
2022-08-05T11:30:17.392Z,36.6
2022-08-05T11:31:53.864Z,36.3
2022-08-05T11:32:19.058Z,36.0
2022-08-05T11:33:21.494Z,36.5
2022-08-05T11:34:22.791Z,36.5
2022-08-05T11:35:22.252Z,36.8
2022-08-05T11:36:34.156Z,37.0
2022-08-05T11:38:27.180Z,36.7
2022-08-05T11:38:37.523Z,35.7
2022-08-05T11:39:19.266Z,36.0
2022-08-05T11:40:18.580Z,36.1
2022-08-05T11:41:36.908Z,36.6
2022-08-05T11:42:18.731Z,36.8
2022-08-05T11:43:17.227Z,36.5
2022-08-05T11:44:41.086Z,37.1
2022-08-05T11:46:14.773Z,37.1
2022-08-05T11:46:32.037Z,37.2
2022-08-05T11:47:48.385Z,37.4
2022-08-05T11:48:18.941Z,37.7
2022-08-05T11:49:17.389Z,37.8
2022-08-05T11:50:17.455Z,37.2
2022-08-05T11:51:43.824Z,37.6
2022-08-05T11:52:23.085Z,37.7
2022-08-05T11:53:17.173Z,38.2
2022-08-05T11:54:16.678Z,38.8
2022-08-05T11:55:16.716Z,39.3
2022-08-05T11:56:17.502Z,39.5
2022-08-05T11:57:27.135Z,40.2
2022-08-05T11:58:17.772Z,40.4
2022-08-05T11:59:21.496Z,40.5
2022-08-05T12:00:16.928Z,40.9
2022-08-05T12:01:19.311Z,40.9
2022-08-05T12:02:30.973Z,41.6
2022-08-05T12:03:31.813Z,41.9
2022-08-05T12:04:16.616Z,42.0
2022-08-05T12:05:18.719Z,42.0
2022-08-05T12:06:20.456Z,42.2
2022-08-05T12:08:02.979Z,42.6
2022-08-05T12:08:18.678Z,42.1
2022-08-05T12:09:20.257Z,41.9
2022-08-05T12:10:16.778Z,42.0
2022-08-05T12:11:20.784Z,42.0
2022-08-05T12:12:18.960Z,42.4
2022-08-05T12:13:48.349Z,42.8
2022-08-05T12:14:18.388Z,42.6
2022-08-05T12:15:18.225Z,42.3
2022-08-05T12:16:18.579Z,42.5
2022-08-05T12:18:03.540Z,42.9
2022-08-05T12:18:17.129Z,42.9
2022-08-05T12:20:17.550Z,42.9
2022-08-05T12:20:33.606Z,43.3
2022-08-05T12:21:17.542Z,43.2
2022-08-05T12:22:20.271Z,43.4
2022-08-05T12:23:16.730Z,43.3
2022-08-05T12:24:17.624Z,43.9
2022-08-05T12:25:17.095Z,44.6
2022-08-05T12:26:17.731Z,44.7
2022-08-05T12:27:25.688Z,44.3
2022-08-05T12:28:16.909Z,44.3
2022-08-05T12:29:23.459Z,44.4
2022-08-05T12:30:17.034Z,44.1
2022-08-05T12:31:33.098Z,43.5
2022-08-05T12:32:17.368Z,43.5
2022-08-05T12:33:36.146Z,43.6
2022-08-05T12:34:23.691Z,43.6
2022-08-05T12:35:22.086Z,43.7
2022-08-05T12:36:16.641Z,43.7
2022-08-05T12:37:22.004Z,44.0
2022-08-05T12:38:30.166Z,43.8
2022-08-05T12:39:17.111Z,43.6
2022-08-05T12:40:28.792Z,43.4
2022-08-05T12:41:17.735Z,43.4
2022-08-05T12:42:17.340Z,43.6
2022-08-05T12:43:21.339Z,43.2
2022-08-05T12:44:33.129Z,43.5
2022-08-05T12:45:16.500Z,43.6
2022-08-05T12:46:22.457Z,43.7
2022-08-05T12:47:26.020Z,43.8
2022-08-05T12:48:27.936Z,43.8
2022-08-05T12:49:19.286Z,43.6
2022-08-05T12:50:19.978Z,43.0
2022-08-05T12:52:11.432Z,43.4
2022-08-05T12:52:29.744Z,43.7
2022-08-05T12:53:18.202Z,43.6
2022-08-05T12:54:23.772Z,43.4
2022-08-05T12:55:17.169Z,44.1
2022-08-05T12:56:34.770Z,43.8
2022-08-05T12:57:16.762Z,43.3
2022-08-05T12:58:39.554Z,43.9
2022-08-05T12:59:47.027Z,43.6
2022-08-05T13:01:58.824Z,43.7
2022-08-05T13:01:59.417Z,43.5
2022-08-05T13:02:18.251Z,44.0
2022-08-05T13:03:17.106Z,44.0
2022-08-05T13:04:21.434Z,44.3
2022-08-05T13:05:16.487Z,44.5
2022-08-05T13:06:17.601Z,44.4
2022-08-05T13:07:17.560Z,44.3
2022-08-05T13:08:17.324Z,44.5
2022-08-05T13:09:28.932Z,44.2
2022-08-05T13:10:20.523Z,44.1
2022-08-05T13:12:02.427Z,43.8
2022-08-05T13:12:17.178Z,44.2
2022-08-05T13:14:04.376Z,44.7
2022-08-05T13:14:20.324Z,44.4
2022-08-05T13:15:24.626Z,43.8
2022-08-05T13:16:17.227Z,43.8
2022-08-05T13:17:25.156Z,43.8
2022-08-05T13:18:20.498Z,43.8